createdAt,value
2023-02-18T01:27:46.522Z,4.50
2023-02-18T01:38:51.365Z,3.60
2023-02-18T01:49:51.237Z,3.10
2023-02-18T02:00:51.133Z,3.20
2023-02-18T02:11:50.984Z,2.00
2023-02-18T02:22:50.867Z,2.00
2023-02-18T02:33:50.747Z,2.30
2023-02-18T02:41:26.324Z,3.20
2023-02-18T02:51:59.373Z,2.50
2023-02-18T03:02:59.354Z,2.40
2023-02-18T03:13:59.130Z,2.10
2023-02-18T03:24:59.000Z,2.20
2023-02-18T03:35:58.880Z,1.80
2023-02-18T03:46:58.772Z,2.10
2023-02-18T03:57:58.853Z,3.40
2023-02-18T04:08:58.546Z,2.70
2023-02-18T04:19:58.433Z,3.80
2023-02-18T04:30:58.284Z,3.70
2023-02-18T04:41:58.146Z,3.70
2023-02-18T04:52:58.012Z,4.20
2023-02-18T05:03:57.926Z,3.90
2023-02-18T05:14:57.778Z,5.90
2023-02-18T05:25:57.655Z,5.60
2023-02-18T05:36:57.517Z,5.10
2023-02-18T05:47:57.441Z,6.10
2023-02-18T05:58:57.284Z,8.00
2023-02-18T06:09:57.155Z,5.00
2023-02-18T06:20:57.068Z,6.40
2023-02-18T06:31:57.157Z,6.40
2023-02-18T06:42:56.759Z,5.70
2023-02-18T06:53:56.650Z,6.40
2023-02-18T07:04:56.516Z,7.00
2023-02-18T07:15:56.616Z,7.00
2023-02-18T07:26:56.302Z,5.60
2023-02-18T07:37:56.130Z,7.00
2023-02-18T07:48:56.033Z,5.60
2023-02-18T07:59:55.879Z,4.40
2023-02-18T08:10:55.793Z,5.00
2023-02-18T08:21:55.829Z,5.40
2023-02-18T08:32:55.550Z,4.70
2023-02-18T08:43:56.410Z,5.70
2023-02-18T08:54:55.258Z,5.20
2023-02-18T09:05:55.151Z,7.20
2023-02-18T09:16:55.018Z,6.80
2023-02-18T09:27:55.202Z,6.10
2023-02-18T09:38:54.815Z,6.50
2023-02-18T09:49:54.638Z,6.50
2023-02-18T10:00:54.521Z,7.10
2023-02-18T10:11:54.396Z,6.70
2023-02-18T10:22:54.277Z,7.00
2023-02-18T10:33:54.148Z,6.10
2023-02-18T10:44:54.026Z,7.60
2023-02-18T10:55:53.892Z,6.70
2023-02-18T11:06:53.770Z,6.20
2023-02-18T11:17:53.646Z,6.90
2023-02-18T11:28:53.571Z,9.40
2023-02-18T11:39:53.417Z,8.00
2023-02-18T11:50:53.285Z,7.90
2023-02-18T12:01:53.184Z,7.90
2023-02-18T12:12:53.032Z,5.90
2023-02-18T12:23:52.923Z,5.20
2023-02-18T12:34:52.902Z,5.10
2023-02-18T12:45:52.742Z,4.00
2023-02-18T12:56:52.622Z,3.40
2023-02-18T13:07:52.461Z,5.20
2023-02-18T13:18:52.372Z,3.80
2023-02-18T13:29:52.170Z,3.50
2023-02-18T13:40:52.061Z,3.90
2023-02-18T13:51:52.049Z,4.00
2023-02-18T14:02:51.969Z,2.90
2023-02-18T14:13:51.693Z,2.80
2023-02-18T14:24:51.599Z,3.50
2023-02-18T14:35:51.586Z,4.10
2023-02-18T14:46:51.759Z,3.50
2023-02-18T14:57:51.409Z,4.70
2023-02-18T15:09:34.132Z,4.60
2023-02-18T15:20:38.011Z,3.80
2023-02-18T15:31:38.422Z,3.50
2023-02-18T15:42:37.875Z,4.40
2023-02-18T15:53:37.607Z,2.60
2023-02-18T16:04:37.484Z,3.70
2023-02-18T16:15:37.399Z,3.50
2023-02-18T16:26:37.239Z,4.70
2023-02-18T16:37:37.118Z,3.90
2023-02-18T16:48:37.010Z,5.10
2023-02-18T16:59:36.871Z,4.50
2023-02-18T17:10:36.744Z,4.80
2023-02-18T17:21:36.633Z,5.50
2023-02-18T17:32:36.499Z,5.50
2023-02-18T17:43:36.379Z,5.40
2023-02-18T17:54:36.263Z,6.10
2023-02-18T18:05:36.135Z,6.10
2023-02-18T18:16:36.037Z,5.60
2023-02-18T18:27:35.897Z,5.80
2023-02-18T18:38:35.774Z,6.00
2023-02-18T18:49:35.645Z,5.20
2023-02-18T19:00:35.527Z,4.80
2023-02-18T19:11:35.414Z,5.90
2023-02-18T19:22:35.281Z,5.90
2023-02-18T19:33:35.227Z,5.50
2023-02-18T19:44:35.072Z,5.50
2023-02-18T19:55:34.928Z,6.00
2023-02-18T20:06:34.791Z,5.80
2023-02-18T20:17:34.677Z,5.80
2023-02-18T20:28:34.596Z,5.40
2023-02-18T20:39:34.496Z,5.70
2023-02-18T20:50:34.613Z,5.40
2023-02-18T21:01:34.334Z,5.30
2023-02-18T21:12:34.048Z,4.80
2023-02-18T21:23:33.938Z,5.60
2023-02-18T21:34:33.847Z,4.60
2023-02-18T21:45:34.714Z,5.00
2023-02-18T21:56:33.588Z,5.00
